Time;durP1;ratioP1;P1;durP2;ratioP2;P2;SDS_P1;SDS_P2;PMS_P1;PMS_P2;Temp;Humidity;BMP_temperature;BMP_pressure;BME280_temperature;BME280_humidity;BME280_pressure;Samples;Min_cycle;Max_cycle;Signal;HPM_P1;HPM_P2
2021/06/21 00:00:41;;;;;;;;;14.00;10.75;;;;;-146.59;100.00;59519.28;4915510;28;46251;-90
2021/06/21 00:03:07;;;;;;;;;11.00;11.00;;;;;-146.59;100.00;59519.28;4899465;28;45851;-93
2021/06/21 00:05:32;;;;;;;;;12.75;11.00;;;;;-146.59;100.00;59519.28;4931849;28;45716;-94
2021/06/21 00:07:59;;;;;;;;;14.25;10.50;;;;;-146.59;100.00;59519.28;4929979;28;49292;-93
2021/06/21 00:10:24;;;;;;;;;13.00;11.00;;;;;-146.59;100.00;59519.28;4930326;28;46238;-92
2021/06/21 00:12:50;;;;;;;;;15.00;12.00;;;;;-146.59;100.00;59519.28;4917445;28;45636;-94
2021/06/21 00:15:19;;;;;;;;;10.75;10.75;;;;;-146.59;100.00;59519.28;4930542;28;45503;-93
2021/06/21 00:17:44;;;;;;;;;9.25;9.25;;;;;-146.59;100.00;59519.28;4923327;28;49054;-94
2021/06/21 00:20:10;;;;;;;;;7.00;5.50;;;;;-146.59;100.00;59519.28;4928470;28;45472;-93
2021/06/21 00:22:36;;;;;;;;;10.75;10.75;;;;;-146.59;100.00;59519.28;4929855;28;45578;-91
2021/06/21 00:25:03;;;;;;;;;12.75;12.00;;;;;-146.59;100.00;59519.28;4930090;28;45540;-93
2021/06/21 00:27:28;;;;;;;;;11.00;10.00;;;;;-146.59;100.00;59519.28;4913732;28;45530;-92
2021/06/21 00:29:54;;;;;;;;;15.50;13.25;;;;;-146.59;100.00;59519.28;4914813;28;50710;-92
2021/06/21 00:32:19;;;;;;;;;14.25;12.75;;;;;-146.59;100.00;59519.28;4915797;28;45457;-92
2021/06/21 00:34:45;;;;;;;;;15.75;12.00;;;;;-146.59;100.00;59519.28;4914448;28;45439;-95
2021/06/21 00:37:10;;;;;;;;;9.00;9.00;;;;;-146.59;100.00;59519.28;4915969;28;45631;-93
2021/06/21 00:39:36;;;;;;;;;14.50;11.50;;;;;-146.59;100.00;59519.28;4931926;28;46048;-95
2021/06/21 00:42:02;;;;;;;;;12.25;9.75;;;;;-146.59;100.00;59519.28;4916639;28;45331;-93
2021/06/21 00:44:27;;;;;;;;;12.75;11.00;;;;;-146.59;100.00;59519.28;4933860;28;45788;-94
2021/06/21 00:46:52;;;;;;;;;13.25;12.25;;;;;-146.59;100.00;59519.28;4919731;28;54256;-95
2021/06/21 00:49:18;;;;;;;;;12.50;11.75;;;;;-146.59;100.00;59519.28;4917059;28;53414;-92
2021/06/21 00:51:43;;;;;;;;;10.75;9.50;;;;;-146.59;100.00;59519.28;4918746;28;45655;-91
2021/06/21 00:54:08;;;;;;;;;9.25;9.25;;;;;-146.59;100.00;59519.28;4917376;28;53650;-85
2021/06/21 00:56:34;;;;;;;;;12.50;10.00;;;;;-146.59;100.00;59519.28;4955934;28;44768;-88
2021/06/21 00:59:01;;;;;;;;;12.75;10.00;;;;;-146.59;100.00;59519.28;4940333;28;45237;-85
2021/06/21 01:01:27;;;;;;;;;12.50;12.50;;;;;-146.59;100.00;59519.28;4941039;28;45114;-85
2021/06/21 01:03:52;;;;;;;;;13.50;13.50;;;;;-146.59;100.00;59519.28;4958706;28;45387;-86
2021/06/21 01:06:18;;;;;;;;;11.75;11.00;;;;;-146.59;100.00;59519.28;4940436;28;45078;-93
2021/06/21 01:08:43;;;;;;;;;12.50;12.25;;;;;-146.59;100.00;59519.28;4942050;28;45552;-84
2021/06/21 01:11:09;;;;;;;;;14.00;11.75;;;;;-146.59;100.00;59519.28;4957469;28;44871;-85
2021/06/21 01:13:59;;;;;;;;;12.75;11.75;;;;;-146.59;100.00;59519.28;4936711;28;45509;-96
2021/06/21 01:16:37;;;;;;;;;14.00;14.00;;;;;-146.59;100.00;59519.28;4919309;28;45551;-93
2021/06/21 01:19:40;;;;;;;;;13.00;13.00;;;;;-146.59;100.00;59519.28;4934028;28;46233;-92
2021/06/21 01:22:34;;;;;;;;;15.50;12.50;;;;;-146.59;100.00;59519.28;4918757;28;46160;-95
2021/06/21 01:25:21;;;;;;;;;14.75;14.25;;;;;-146.59;100.00;59519.28;4931233;28;45529;-94
2021/06/21 01:28:05;;;;;;;;;19.50;15.75;;;;;-146.59;100.00;59519.28;4921721;28;45513;-92
2021/06/21 01:30:46;;;;;;;;;13.75;12.50;;;;;-146.59;100.00;59519.28;4918926;28;45450;-94
2021/06/21 01:33:12;;;;;;;;;12.50;11.50;;;;;-146.59;100.00;59519.28;4917943;28;45339;-93
2021/06/21 01:35:40;;;;;;;;;15.75;13.25;;;;;-146.59;100.00;59519.28;4933934;28;45663;-95
2021/06/21 01:38:11;;;;;;;;;12.00;11.25;;;;;-146.59;100.00;59519.28;4918305;28;45697;-93
2021/06/21 01:40:44;;;;;;;;;14.25;10.50;;;;;-146.59;100.00;59519.28;4934424;28;46067;-93
2021/06/21 01:43:13;;;;;;;;;10.00;8.50;;;;;-146.59;100.00;59519.28;4936641;28;45944;-83
2021/06/21 01:45:40;;;;;;;;;9.75;9.00;;;;;-146.59;100.00;59519.28;4938711;28;45434;-91
2021/06/21 01:48:06;;;;;;;;;9.00;7.50;;;;;-146.59;100.00;59519.28;4922828;28;45726;-92
2021/06/21 01:50:32;;;;;;;;;6.00;6.00;;;;;-146.59;100.00;59519.28;4934811;28;45588;-93
2021/06/21 01:53:13;;;;;;;;;7.75;6.75;;;;;-146.59;100.00;59519.28;4935629;28;45470;-90
2021/06/21 01:55:44;;;;;;;;;6.00;5.00;;;;;-146.59;100.00;59519.28;4912731;28;45590;-91
2021/06/21 01:58:11;;;;;;;;;6.25;6.00;;;;;-146.59;100.00;59519.28;4916805;28;45420;-95
2021/06/21 02:00:38;;;;;;;;;8.25;7.75;;;;;-146.59;100.00;59519.28;4934218;28;47427;-91
2021/06/21 02:03:05;;;;;;;;;8.00;5.00;;;;;-146.59;100.00;59519.28;4918038;28;45418;-93
2021/06/21 02:05:33;;;;;;;;;6.75;6.00;;;;;-146.59;100.00;59519.28;4917332;28;45514;-94
2021/06/21 02:07:59;;;;;;;;;6.00;5.00;;;;;-146.59;100.00;59519.28;4933497;28;45457;-89
2021/06/21 02:10:25;;;;;;;;;3.50;3.50;;;;;-146.59;100.00;59519.28;4934793;28;45902;-94
2021/06/21 02:12:51;;;;;;;;;3.75;3.75;;;;;-146.59;100.00;59519.28;4912842;28;45468;-93
2021/06/21 02:15:17;;;;;;;;;6.25;4.75;;;;;-146.59;100.00;59519.28;4919813;28;45525;-93
2021/06/21 02:17:43;;;;;;;;;4.25;4.25;;;;;-146.59;100.00;59519.28;4917742;28;48483;-94
2021/06/21 02:20:09;;;;;;;;;6.75;6.00;;;;;-146.59;100.00;59519.28;4933182;28;45610;-94
2021/06/21 02:22:35;;;;;;;;;6.00;5.00;;;;;-146.59;100.00;59519.28;4917938;28;46101;-96
2021/06/21 02:25:05;;;;;;;;;4.25;4.25;;;;;-146.59;100.00;59519.28;4931484;28;45632;-95
2021/06/21 02:27:31;;;;;;;;;4.50;4.00;;;;;-146.59;100.00;59519.28;4933861;28;45453;-95
2021/06/21 02:29:59;;;;;;;;;4.00;4.00;;;;;-146.59;100.00;59519.28;4918931;28;45428;-94
2021/06/21 02:32:24;;;;;;;;;5.75;3.75;;;;;-146.59;100.00;59519.28;4917006;28;45577;-92
2021/06/21 02:34:54;;;;;;;;;3.25;3.25;;;;;-146.59;100.00;59519.28;4916857;28;45421;-94
2021/06/21 02:37:19;;;;;;;;;4.00;4.00;;;;;-146.59;100.00;59519.28;4916634;28;45566;-94
2021/06/21 02:39:45;;;;;;;;;4.00;4.00;;;;;-146.59;100.00;59519.28;4933688;28;45918;-94
2021/06/21 02:42:11;;;;;;;;;3.75;3.75;;;;;-146.59;100.00;59519.28;4901743;28;45454;-95
2021/06/21 02:44:36;;;;;;;;;4.00;4.00;;;;;-146.59;100.00;59519.28;4933086;28;45431;-93
2021/06/21 02:47:03;;;;;;;;;3.00;3.00;;;;;-146.59;100.00;59519.28;4933174;28;53552;-90
2021/06/21 02:49:28;;;;;;;;;2.75;2.75;;;;;-146.59;100.00;59519.28;4917462;28;45573;-94
2021/06/21 02:52:02;;;;;;;;;6.00;4.00;;;;;-146.59;100.00;59519.28;4916845;28;53714;-90
2021/06/21 02:54:51;;;;;;;;;3.50;3.25;;;;;-146.59;100.00;59519.28;4901102;28;45529;-94
2021/06/21 02:57:21;;;;;;;;;4.25;4.25;;;;;-146.59;100.00;59519.28;4918288;28;45629;-94
2021/06/21 02:59:47;;;;;;;;;5.25;4.75;;;;;-146.59;100.00;59519.28;4933403;28;46380;-93
2021/06/21 03:02:15;;;;;;;;;4.75;4.00;;;;;-146.59;100.00;59519.28;4931735;28;46781;-91
2021/06/21 03:04:41;;;;;;;;;5.00;5.00;;;;;-146.59;100.00;59519.28;4930006;28;45703;-94
2021/06/21 03:07:15;;;;;;;;;5.00;5.00;;;;;-146.59;100.00;59519.28;4931651;28;45385;-95
2021/06/21 03:09:43;;;;;;;;;5.25;5.00;;;;;-146.59;100.00;59519.28;4932570;28;46446;-93
2021/06/21 03:12:09;;;;;;;;;5.00;3.00;;;;;-146.59;100.00;59519.28;4917368;28;45387;-94
2021/06/21 03:14:35;;;;;;;;;5.00;3.75;;;;;-146.59;100.00;59519.28;4917609;28;45941;-92
2021/06/21 03:17:06;;;;;;;;;5.00;5.00;;;;;-146.59;100.00;59519.28;4920669;28;45722;-93
2021/06/21 03:19:31;;;;;;;;;8.00;5.00;;;;;-146.59;100.00;59519.28;4932715;28;46555;-96
2021/06/21 03:21:56;;;;;;;;;6.00;5.00;;;;;-146.59;100.00;59519.28;4919974;28;56786;-92
2021/06/21 03:24:23;;;;;;;;;4.00;4.00;;;;;-146.59;100.00;59519.28;4919526;28;45336;-88
2021/06/21 03:26:49;;;;;;;;;5.00;5.00;;;;;-146.59;100.00;59519.28;4929302;28;45722;-95
2021/06/21 03:29:16;;;;;;;;;6.25;5.00;;;;;-146.59;100.00;59519.28;4936588;28;46232;-93
2021/06/21 03:31:45;;;;;;;;;6.50;5.00;;;;;-146.59;100.00;59519.28;4934328;28;45531;-93
2021/06/21 03:34:15;;;;;;;;;7.25;4.75;;;;;-146.59;100.00;59519.28;4920025;28;45525;-94
2021/06/21 03:36:40;;;;;;;;;6.25;6.25;;;;;-146.59;100.00;59519.28;4917303;28;45496;-91
2021/06/21 03:39:06;;;;;;;;;4.50;4.50;;;;;-146.59;100.00;59519.28;4918044;28;45522;-94
2021/06/21 03:41:31;;;;;;;;;5.75;5.25;;;;;-146.59;100.00;59519.28;4921355;28;45540;-94
2021/06/21 03:43:56;;;;;;;;;8.25;5.75;;;;;-146.59;100.00;59519.28;4920377;28;45406;-92
2021/06/21 03:46:22;;;;;;;;;9.00;5.00;;;;;-146.59;100.00;59519.28;4932461;28;45600;-94
2021/06/21 03:48:47;;;;;;;;;5.50;5.50;;;;;-146.59;100.00;59519.28;4932007;28;60385;-93
2021/06/21 03:51:12;;;;;;;;;4.75;4.75;;;;;-146.59;100.00;59519.28;4921621;28;59929;-91
2021/06/21 03:53:38;;;;;;;;;6.00;6.00;;;;;-146.59;100.00;59519.28;4920968;28;54003;-89
2021/06/21 03:56:03;;;;;;;;;6.25;6.25;;;;;-146.59;100.00;59519.28;4920429;28;55079;-93
2021/06/21 03:58:29;;;;;;;;;7.00;7.00;;;;;-146.59;100.00;59519.28;4914878;28;46800;-90
2021/06/21 04:00:54;;;;;;;;;6.50;6.50;;;;;-146.59;100.00;59519.28;4931372;28;45344;-92
2021/06/21 04:03:20;;;;;;;;;11.00;8.00;;;;;-146.59;100.00;59519.28;4924215;28;45533;-93
2021/06/21 04:05:45;;;;;;;;;6.50;5.25;;;;;-146.59;100.00;59519.28;4936618;28;45538;-90
2021/06/21 04:08:13;;;;;;;;;9.50;7.25;;;;;-146.59;100.00;59519.28;4919290;28;46002;-93
2021/06/21 04:10:39;;;;;;;;;9.75;6.25;;;;;-146.59;100.00;59519.28;4934472;28;45981;-92
2021/06/21 04:13:05;;;;;;;;;6.25;6.25;;;;;-146.59;100.00;59519.28;4936784;28;45477;-92
2021/06/21 04:15:31;;;;;;;;;6.25;5.25;;;;;-146.59;100.00;59519.28;4934698;28;45535;-94
2021/06/21 04:17:58;;;;;;;;;8.00;6.50;;;;;-146.59;100.00;59519.28;4917826;28;45370;-90
2021/06/21 04:20:24;;;;;;;;;6.25;6.25;;;;;-146.59;100.00;59519.28;4934850;28;45903;-92
2021/06/21 04:22:49;;;;;;;;;8.00;7.00;;;;;-146.59;100.00;59519.28;4916476;28;45536;-93
2021/06/21 04:25:17;;;;;;;;;7.25;7.25;;;;;-146.59;100.00;59519.28;4918309;28;45314;-93
2021/06/21 04:27:43;;;;;;;;;7.00;6.00;;;;;-146.59;100.00;59519.28;4916232;28;47238;-90
2021/06/21 04:30:11;;;;;;;;;6.50;6.50;;;;;-146.59;100.00;59519.28;4906256;28;45671;-90
2021/06/21 04:32:39;;;;;;;;;7.75;6.25;;;;;-146.59;100.00;59519.28;4921432;28;45501;-91
2021/06/21 04:35:11;;;;;;;;;6.00;5.25;;;;;-146.59;100.00;59519.28;4917955;28;45629;-91
2021/06/21 04:37:37;;;;;;;;;6.25;5.25;;;;;-146.59;100.00;59519.28;4926973;28;46093;-91
2021/06/21 04:40:05;;;;;;;;;6.50;6.00;;;;;-146.59;100.00;59519.28;4921188;28;45844;-93
2021/06/21 04:42:30;;;;;;;;;6.75;6.00;;;;;-146.59;100.00;59519.28;4938177;28;45325;-93
2021/06/21 04:44:55;;;;;;;;;4.75;4.25;;;;;-146.59;100.00;59519.28;4923717;28;56437;-93
2021/06/21 04:47:23;;;;;;;;;7.00;6.00;;;;;-146.59;100.00;59519.28;4923033;28;52862;-93
2021/06/21 04:49:53;;;;;;;;;7.50;6.75;;;;;-146.59;100.00;59519.28;4924689;28;45444;-91
2021/06/21 04:52:20;;;;;;;;;5.00;5.00;;;;;-146.59;100.00;59519.28;4936509;28;45481;-93
2021/06/21 04:54:52;;;;;;;;;8.25;6.00;;;;;-146.59;100.00;59519.28;4925556;28;45316;-92
2021/06/21 04:57:18;;;;;;;;;8.00;6.25;;;;;-146.59;100.00;59519.28;4920408;28;48063;-92
2021/06/21 04:59:44;;;;;;;;;6.25;6.25;;;;;-146.59;100.00;59519.28;4938722;28;45293;-93
2021/06/21 05:02:10;;;;;;;;;7.00;5.75;;;;;-146.59;100.00;59519.28;4916721;28;45842;-92
2021/06/21 05:04:35;;;;;;;;;9.50;7.25;;;;;-146.59;100.00;59519.28;4934531;28;45357;-92
2021/06/21 05:07:02;;;;;;;;;7.75;6.75;;;;;-146.59;100.00;59519.28;4918852;28;45287;-93
2021/06/21 05:09:28;;;;;;;;;10.25;8.75;;;;;-146.59;100.00;59519.28;4919651;28;45303;-92
2021/06/21 05:11:53;;;;;;;;;8.75;7.25;;;;;-146.59;100.00;59519.28;4918713;28;47285;-82
2021/06/21 05:14:19;;;;;;;;;8.00;8.00;;;;;-146.59;100.00;59519.28;4933226;28;45673;-92
2021/06/21 05:16:44;;;;;;;;;7.00;6.50;;;;;-146.59;100.00;59519.28;4918794;28;58833;-92
2021/06/21 05:19:09;;;;;;;;;6.50;6.00;;;;;-146.59;100.00;59519.28;4915925;28;45617;-92
2021/06/21 05:21:35;;;;;;;;;8.50;8.50;;;;;-146.59;100.00;59519.28;4919044;28;50425;-92
2021/06/21 05:24:01;;;;;;;;;8.50;8.25;;;;;-146.59;100.00;59519.28;4919175;28;45367;-93
2021/06/21 05:26:26;;;;;;;;;8.25;7.50;;;;;-146.59;100.00;59519.28;4918955;28;52708;-91
2021/06/21 05:28:52;;;;;;;;;8.75;8.75;;;;;-146.59;100.00;59519.28;4901846;28;55453;-91
2021/06/21 05:31:17;;;;;;;;;9.00;8.00;;;;;-146.59;100.00;59519.28;4918170;28;45907;-92
2021/06/21 05:33:43;;;;;;;;;8.00;8.00;;;;;-146.59;100.00;59519.28;4933551;28;45625;-91
2021/06/21 05:36:10;;;;;;;;;14.50;8.00;;;;;-146.59;100.00;59519.28;4918245;28;45459;-92
2021/06/21 05:38:35;;;;;;;;;7.00;7.00;;;;;-146.59;100.00;59519.28;4918305;28;45474;-92
2021/06/21 05:41:01;;;;;;;;;10.50;8.75;;;;;-146.59;100.00;59519.28;4932974;28;45352;-92
2021/06/21 05:43:26;;;;;;;;;9.00;7.00;;;;;-146.59;100.00;59519.28;4932948;28;45630;-92
2021/06/21 05:45:51;;;;;;;;;8.25;7.25;;;;;-146.59;100.00;59519.28;4918428;28;54708;-90
2021/06/21 05:48:17;;;;;;;;;13.50;8.75;;;;;-146.59;100.00;59519.28;4916678;28;54169;-92
2021/06/21 05:50:42;;;;;;;;;8.00;7.25;;;;;-146.59;100.00;59519.28;4933329;28;45384;-92
2021/06/21 05:53:08;;;;;;;;;8.00;7.50;;;;;-146.59;100.00;59519.28;4933725;28;45560;-92
2021/06/21 05:55:33;;;;;;;;;8.75;7.25;;;;;-146.59;100.00;59519.28;4915247;28;58621;-92
2021/06/21 05:58:00;;;;;;;;;7.00;7.00;;;;;-146.59;100.00;59519.28;4917997;28;45601;-91
2021/06/21 06:00:26;;;;;;;;;7.75;7.25;;;;;-146.59;100.00;59519.28;4932649;28;45341;-86
2021/06/21 06:02:51;;;;;;;;;10.00;6.50;;;;;-146.59;100.00;59519.28;4916934;28;45485;-94
2021/06/21 06:05:17;;;;;;;;;7.00;7.00;;;;;-146.59;100.00;59519.28;4932087;28;47512;-90
2021/06/21 06:07:43;;;;;;;;;8.25;7.25;;;;;-146.59;100.00;59519.28;4907201;28;45542;-89
2021/06/21 06:10:08;;;;;;;;;9.00;7.00;;;;;-146.59;100.00;59519.28;4913524;28;45414;-89
2021/06/21 06:12:34;;;;;;;;;7.25;6.50;;;;;-146.59;100.00;59519.28;4921933;28;45349;-89
2021/06/21 06:15:00;;;;;;;;;9.00;8.75;;;;;-146.59;100.00;59519.28;4915956;28;47262;-91
2021/06/21 06:17:26;;;;;;;;;8.75;7.00;;;;;-146.59;100.00;59519.28;4930451;28;45691;-91
2021/06/21 06:19:51;;;;;;;;;9.00;7.25;;;;;-146.59;100.00;59519.28;4924937;28;45550;-91
2021/06/21 06:22:17;;;;;;;;;6.00;6.00;;;;;-146.59;100.00;59519.28;4915967;28;49830;-90
2021/06/21 06:24:42;;;;;;;;;8.25;6.75;;;;;-146.59;100.00;59519.28;4917729;28;46902;-91
2021/06/21 06:27:08;;;;;;;;;9.25;6.00;;;;;-146.59;100.00;59519.28;4917381;28;45482;-90
2021/06/21 06:29:34;;;;;;;;;8.00;7.00;;;;;-146.59;100.00;59519.28;4896363;28;45540;-90
2021/06/21 06:32:00;;;;;;;;;6.25;6.25;;;;;-146.59;100.00;59519.28;4932800;28;45466;-91
2021/06/21 06:34:28;;;;;;;;;7.75;6.00;;;;;-146.59;100.00;59519.28;4916619;28;47882;-91
2021/06/21 06:36:53;;;;;;;;;8.00;6.00;;;;;-146.59;100.00;59519.28;4903835;28;45571;-92
2021/06/21 06:39:20;;;;;;;;;5.00;5.00;;;;;-146.59;100.00;59519.28;4929629;28;45428;-89
2021/06/21 06:41:45;;;;;;;;;7.75;7.00;;;;;-146.59;100.00;59519.28;4899953;28;45673;-92
2021/06/21 06:44:11;;;;;;;;;8.00;8.00;;;;;-146.59;100.00;59519.28;4917590;28;45982;-92
2021/06/21 06:46:36;;;;;;;;;7.00;6.00;;;;;-146.59;100.00;59519.28;4907664;28;45620;-90
2021/06/21 06:49:03;;;;;;;;;9.00;6.00;;;;;-146.59;100.00;59519.28;4916724;28;45551;-92
2021/06/21 06:51:32;;;;;;;;;5.25;4.75;;;;;-146.59;100.00;59519.28;4912152;28;45544;-93
2021/06/21 06:54:19;;;;;;;;;7.00;5.50;;;;;-146.59;100.00;59519.28;4913769;28;46193;-90
2021/06/21 06:56:59;;;;;;;;;7.00;7.00;;;;;-146.59;100.00;59519.28;4929400;28;45236;-89
2021/06/21 06:59:26;;;;;;;;;6.00;5.75;;;;;-146.59;100.00;59519.28;4930861;28;45610;-92
2021/06/21 07:01:51;;;;;;;;;5.25;5.25;;;;;-146.59;100.00;59519.28;4932728;28;45400;-90
2021/06/21 07:04:17;;;;;;;;;8.00;6.00;;;;;-146.59;100.00;59519.28;4903879;28;65661;-91
2021/06/21 07:06:42;;;;;;;;;4.00;4.00;;;;;-146.59;100.00;59519.28;4917771;28;64137;-92
2021/06/21 07:09:09;;;;;;;;;17.75;17.75;;;;;-146.59;100.00;59519.28;4900516;28;45354;-91
2021/06/21 07:11:36;;;;;;;;;37.25;33.75;;;;;-146.59;100.00;59519.28;4931398;28;45328;-92
2021/06/21 07:14:05;;;;;;;;;18.75;17.25;;;;;-146.59;100.00;59519.28;4934216;28;45876;-90
2021/06/21 07:16:31;;;;;;;;;21.00;19.75;;;;;-146.59;100.00;59519.28;4918338;28;45743;-89
2021/06/21 07:18:57;;;;;;;;;6.50;6.50;;;;;-146.59;100.00;59519.28;4917404;28;45377;-91
2021/06/21 07:21:22;;;;;;;;;7.75;5.25;;;;;-146.59;100.00;59519.28;4914576;28;45987;-75
2021/06/21 07:23:48;;;;;;;;;6.25;5.00;;;;;-146.59;100.00;59519.28;4907642;28;45746;-77
2021/06/21 07:26:13;;;;;;;;;6.25;6.00;;;;;-146.59;100.00;59519.28;4929684;28;58317;-76
2021/06/21 07:28:38;;;;;;;;;5.00;5.00;;;;;-146.59;100.00;59519.28;4930372;28;45575;-75
2021/06/21 07:31:04;;;;;;;;;5.50;5.50;;;;;-146.59;100.00;59519.28;4915224;28;59201;-76
2021/06/21 07:33:31;;;;;;;;;8.25;5.25;;;;;-146.59;100.00;59519.28;4930470;28;45930;-77
2021/06/21 07:35:57;;;;;;;;;4.50;3.50;;;;;-146.59;100.00;59519.28;4914565;28;45572;-76
2021/06/21 07:38:22;;;;;;;;;5.00;5.00;;;;;-146.59;100.00;59519.28;4914932;28;45300;-77
2021/06/21 07:40:47;;;;;;;;;3.00;3.00;;;;;-146.59;100.00;59519.28;4915547;28;45514;-76
2021/06/21 07:43:13;;;;;;;;;4.75;4.00;;;;;-146.59;100.00;59519.28;4915321;28;45395;-77
2021/06/21 07:45:38;;;;;;;;;5.25;3.75;;;;;-146.59;100.00;59519.28;4914949;28;50615;-76
2021/06/21 07:48:04;;;;;;;;;4.00;3.00;;;;;-146.59;100.00;59519.28;4892496;28;45533;-76
2021/06/21 07:50:31;;;;;;;;;4.25;3.00;;;;;-146.59;100.00;59519.28;4928040;28;45348;-76
2021/06/21 07:52:57;;;;;;;;;1.75;1.75;;;;;-146.59;100.00;59519.28;4914549;28;47116;-77
2021/06/21 07:55:27;;;;;;;;;3.00;3.00;;;;;-146.59;100.00;59519.28;4914843;28;45300;-77
2021/06/21 07:57:52;;;;;;;;;2.50;2.50;;;;;-146.59;100.00;59519.28;4910598;28;45407;-76
2021/06/21 08:00:21;;;;;;;;;2.00;2.00;;;;;-146.59;100.00;59519.28;4915884;28;45463;-76
2021/06/21 08:02:46;;;;;;;;;2.00;2.00;;;;;-146.59;100.00;59519.28;4914563;28;45692;-76
2021/06/21 08:05:11;;;;;;;;;3.00;1.25;;;;;-146.59;100.00;59519.28;4913332;28;54166;-76
2021/06/21 08:07:37;;;;;;;;;2.25;2.00;;;;;-146.59;100.00;59519.28;4914740;28;45786;-75
2021/06/21 08:10:03;;;;;;;;;1.50;1.25;;;;;-146.59;100.00;59519.28;4915501;28;45895;-76
2021/06/21 08:12:29;;;;;;;;;3.00;2.00;;;;;-146.59;100.00;59519.28;4933008;28;45605;-76
2021/06/21 08:14:54;;;;;;;;;2.00;1.00;;;;;-146.59;100.00;59519.28;4918981;28;45770;-77
2021/06/21 08:17:19;;;;;;;;;2.00;2.00;;;;;-146.59;100.00;59519.28;4918021;28;45610;-76
2021/06/21 08:19:45;;;;;;;;;4.25;1.25;;;;;-146.59;100.00;59519.28;4914276;28;49984;-77
2021/06/21 08:22:10;;;;;;;;;5.50;2.25;;;;;-146.59;100.00;59519.28;4931481;28;45884;-76
2021/06/21 08:24:38;;;;;;;;;2.25;2.00;;;;;-146.59;100.00;59519.28;4932463;28;45337;-76
2021/06/21 08:27:03;;;;;;;;;1.25;1.25;;;;;-146.59;100.00;59519.28;4915943;28;45513;-75
2021/06/21 08:29:29;;;;;;;;;2.00;1.50;;;;;-146.59;100.00;59519.28;4917543;28;45289;-76
2021/06/21 08:31:54;;;;;;;;;1.50;1.50;;;;;-146.59;100.00;59519.28;4918423;28;45421;-77
2021/06/21 08:34:20;;;;;;;;;1.75;1.75;;;;;-146.59;100.00;59519.28;4932901;28;45360;-77
2021/06/21 08:36:45;;;;;;;;;1.00;1.00;;;;;-146.59;100.00;59519.28;4932113;28;49358;-76
2021/06/21 08:39:10;;;;;;;;;2.00;1.00;;;;;-146.59;100.00;59519.28;4919282;28;45495;-76
2021/06/21 08:41:37;;;;;;;;;3.00;1.00;;;;;-146.59;100.00;59519.28;4932306;28;56183;-77
2021/06/21 08:44:03;;;;;;;;;4.75;1.25;;;;;-146.59;100.00;59519.28;4932502;28;45813;-77
2021/06/21 08:46:28;;;;;;;;;1.75;1.00;;;;;-146.59;100.00;59519.28;4917587;28;45433;-77
2021/06/21 08:48:55;;;;;;;;;2.75;1.50;;;;;-146.59;100.00;59519.28;4915560;28;45696;-77
2021/06/21 08:51:21;;;;;;;;;1.00;1.00;;;;;-146.59;100.00;59519.28;4897678;28;48786;-77
2021/06/21 08:53:47;;;;;;;;;3.75;1.00;;;;;-146.59;100.00;59519.28;4932705;28;45791;-77
2021/06/21 08:56:12;;;;;;;;;1.00;1.00;;;;;-146.59;100.00;59519.28;4917209;28;45654;-78
2021/06/21 08:58:39;;;;;;;;;1.00;1.00;;;;;-146.59;100.00;59519.28;4915868;28;45782;-77
2021/06/21 09:01:04;;;;;;;;;1.75;1.00;;;;;-146.59;100.00;59519.28;4917803;28;45449;-77
2021/06/21 09:03:34;;;;;;;;;1.00;1.00;;;;;-146.59;100.00;59519.28;4917844;28;45509;-76
2021/06/21 09:05:59;;;;;;;;;2.00;2.00;;;;;-146.59;100.00;59519.28;4916261;28;45445;-76
2021/06/21 09:08:25;;;;;;;;;1.00;1.00;;;;;-146.59;100.00;59519.28;4917747;28;45525;-76
2021/06/21 09:10:51;;;;;;;;;1.25;0.50;;;;;-146.59;100.00;59519.28;4910354;28;57389;-76
2021/06/21 09:13:18;;;;;;;;;1.00;1.00;;;;;-146.59;100.00;59519.28;4915705;28;45611;-75
2021/06/21 09:15:49;;;;;;;;;1.00;1.00;;;;;-146.59;100.00;59519.28;4932056;28;45541;-76
2021/06/21 09:18:36;;;;;;;;;1.00;1.00;;;;;-146.59;100.00;59519.28;4916885;28;45441;-77
2021/06/21 09:21:22;;;;;;;;;2.00;1.00;;;;;-146.59;100.00;59519.28;4933065;28;46328;-77
2021/06/21 09:23:49;;;;;;;;;2.00;1.00;;;;;-146.59;100.00;59519.28;4917773;28;45670;-76
2021/06/21 09:26:23;;;;;;;;;3.00;1.50;;;;;-146.59;100.00;59519.28;4916175;28;45498;-76
2021/06/21 09:28:48;;;;;;;;;1.00;1.00;;;;;-146.59;100.00;59519.28;4915885;28;45412;-76
2021/06/21 09:31:14;;;;;;;;;1.00;1.00;;;;;-146.59;100.00;59519.28;4931523;28;45772;-77
2021/06/21 09:33:40;;;;;;;;;1.00;1.00;;;;;-146.59;100.00;59519.28;4915352;28;45523;-76
2021/06/21 09:36:06;;;;;;;;;1.00;1.00;;;;;-146.59;100.00;59519.28;4917298;28;45557;-76
2021/06/21 09:38:31;;;;;;;;;4.25;0.75;;;;;-146.59;100.00;59519.28;4923363;28;45424;-77
2021/06/21 09:40:58;;;;;;;;;1.00;1.00;;;;;-146.59;100.00;59519.28;4917036;28;45410;-76
2021/06/21 09:43:25;;;;;;;;;0.00;0.00;;;;;-146.59;100.00;59519.28;4915132;28;45829;-76
2021/06/21 09:46:13;;;;;;;;;2.00;0.00;;;;;-146.59;100.00;59519.28;4913482;28;45490;-76
2021/06/21 09:48:42;;;;;;;;;0.25;0.25;;;;;-146.59;100.00;59519.28;4906268;28;45405;-77
2021/06/21 09:51:26;;;;;;;;;2.00;0.25;;;;;-146.59;100.00;59519.28;4915451;28;45539;-77
2021/06/21 09:53:56;;;;;;;;;1.00;1.00;;;;;-146.59;100.00;59519.28;4916804;28;45615;-77
2021/06/21 09:56:37;;;;;;;;;1.00;1.00;;;;;-146.59;100.00;59519.28;4911975;28;45424;-83
2021/06/21 09:59:26;;;;;;;;;1.00;1.00;;;;;-146.59;100.00;59519.28;4923940;28;45446;-77
2021/06/21 10:02:21;;;;;;;;;1.50;1.00;;;;;-146.59;100.00;59519.28;4898756;28;47229;-78
2021/06/21 10:04:47;;;;;;;;;2.50;1.00;;;;;-146.59;100.00;59519.28;4908830;28;45514;-76
2021/06/21 10:07:35;;;;;;;;;2.00;1.00;;;;;-146.59;100.00;59519.28;4931340;28;45391;-77
2021/06/21 10:10:07;;;;;;;;;1.00;1.00;;;;;-146.59;100.00;59519.28;4919707;28;45530;-75
2021/06/21 10:12:32;;;;;;;;;2.25;1.00;;;;;-146.59;100.00;59519.28;4931736;28;47714;-75
2021/06/21 10:14:58;;;;;;;;;1.00;1.00;;;;;-146.59;100.00;59519.28;4916145;28;45398;-74
2021/06/21 10:17:24;;;;;;;;;1.50;0.75;;;;;-146.59;100.00;59519.28;4911083;28;57440;-75
2021/06/21 10:19:50;;;;;;;;;1.50;0.25;;;;;-146.59;100.00;59519.28;4916736;28;45435;-75
2021/06/21 10:22:19;;;;;;;;;2.75;2.00;;;;;-146.59;100.00;59519.28;4930448;28;46227;-75
2021/06/21 10:24:45;;;;;;;;;2.00;1.00;;;;;-146.59;100.00;59519.28;4915185;28;45313;-75
2021/06/21 10:27:10;;;;;;;;;1.00;0.00;;;;;-146.59;100.00;59519.28;4900366;28;49321;-75
2021/06/21 10:29:36;;;;;;;;;1.75;0.75;;;;;-146.59;100.00;59519.28;4930874;28;45319;-75
2021/06/21 10:32:06;;;;;;;;;1.50;1.00;;;;;-146.59;100.00;59519.28;4910919;28;47249;-74
2021/06/21 10:34:32;;;;;;;;;0.75;0.75;;;;;-146.59;100.00;59519.28;4914465;28;45453;-75
2021/06/21 10:36:58;;;;;;;;;2.00;0.75;;;;;-146.59;100.00;59519.28;4915584;28;45536;-76
2021/06/21 10:39:27;;;;;;;;;0.75;0.75;;;;;-146.59;100.00;59519.28;4931669;28;45813;-73
2021/06/21 10:42:12;;;;;;;;;2.00;0.75;;;;;-146.59;100.00;59519.28;4916392;28;46183;-75
2021/06/21 10:45:00;;;;;;;;;0.75;0.75;;;;;-146.59;100.00;59519.28;4915924;28;45621;-76
2021/06/21 10:47:45;;;;;;;;;2.75;0.75;;;;;-146.59;100.00;59519.28;4914625;28;45624;-75
2021/06/21 10:50:17;;;;;;;;;1.75;1.50;;;;;-146.59;100.00;59519.28;4915992;28;45491;-75
2021/06/21 10:52:56;;;;;;;;;0.25;0.25;;;;;-146.59;100.00;59519.28;4916306;28;46126;-75
2021/06/21 10:55:21;;;;;;;;;1.00;1.00;;;;;-146.59;100.00;59519.28;4930913;28;45387;-73
2021/06/21 10:57:54;;;;;;;;;2.75;0.75;;;;;-146.59;100.00;59519.28;4915807;28;45458;-76
2021/06/21 11:00:42;;;;;;;;;1.00;0.00;;;;;-146.59;100.00;59519.28;4895587;28;45415;-73
2021/06/21 11:03:23;;;;;;;;;0.75;0.00;;;;;-146.59;100.00;59519.28;4914292;28;46224;-75
2021/06/21 11:05:48;;;;;;;;;0.00;0.00;;;;;-146.59;100.00;59519.28;4915731;28;45698;-68
2021/06/21 11:08:22;;;;;;;;;0.50;0.00;;;;;-146.59;100.00;59519.28;4915200;28;45440;-78
2021/06/21 11:10:58;;;;;;;;;0.00;0.00;;;;;-146.59;100.00;59519.28;4915867;28;46296;-77